Terminal Aerodrome Forecast
Issued by NWS

Home | Current Version | Previous Version | Text Only | Print | Product List | Glossary On
Versions: 1 2 3 4 5 6 7 8 9 10 11 12 13 14
000
FTUS41 KLWX 261736
TAFMTN
TAF
KMTN 261736Z 2618/2718 13006KT P6SM SCT060 BKN150
     FM270000 20005KT P6SM SCT060 BKN150
     FM270500 00000KT P6SM SCT060 BKN080=

USA.gov is the U.S. government's official web portal to all federal, state and local government web resources and services.